Time;durP1;ratioP1;P1;durP2;ratioP2;P2;SDS_P1;SDS_P2;PMS_P1;PMS_P2;Temp;Humidity;BMP_temperature;BMP_pressure;BME280_temperature;BME280_humidity;BME280_pressure;Samples;Min_cycle;Max_cycle;Signal;HPM_P1;HPM_P2
2021/01/26 00:01:36;;;;;;;44.25;22.83;;;;;;;0.84;91.41;100538.34;6197673;28;20058;-79
2021/01/26 00:04:37;;;;;;;41.38;22.90;;;;;;;0.97;90.66;100539.00;6197701;28;20046;-79
2021/01/26 00:07:39;;;;;;;42.80;22.85;;;;;;;0.88;91.44;100542.59;6197317;28;20073;-79
2021/01/26 00:10:40;;;;;;;47.30;24.00;;;;;;;0.88;91.70;100550.34;6197205;28;20566;-78
2021/01/26 00:13:41;;;;;;;38.13;23.23;;;;;;;0.87;91.53;100545.22;6226470;28;20049;-79
2021/01/26 00:16:41;;;;;;;44.75;22.70;;;;;;;0.93;91.40;100538.19;6245932;28;20125;-79
2021/01/26 00:19:42;;;;;;;45.22;23.70;;;;;;;0.88;91.21;100541.72;6245626;28;20107;-79
2021/01/26 00:22:44;;;;;;;40.05;23.08;;;;;;;0.86;91.65;100544.31;6234744;28;20081;-79
2021/01/26 00:25:45;;;;;;;42.42;23.30;;;;;;;0.82;91.80;100545.28;6221478;28;20049;-79
2021/01/26 00:28:46;;;;;;;42.47;24.50;;;;;;;0.81;92.11;100540.13;6221107;28;20046;-78
2021/01/26 00:31:47;;;;;;;41.65;21.65;;;;;;;0.97;91.66;100536.41;6222436;28;20053;-80
2021/01/26 00:34:48;;;;;;;42.63;23.75;;;;;;;0.98;91.27;100538.94;6221413;28;20403;-79
2021/01/26 00:37:50;;;;;;;42.58;21.85;;;;;;;0.93;92.58;100542.50;6221222;28;20057;-79
2021/01/26 00:40:51;;;;;;;45.08;23.52;;;;;;;0.97;92.14;100537.25;6220924;28;20050;-80
2021/01/26 00:43:52;;;;;;;46.60;23.00;;;;;;;0.94;93.09;100539.03;6221473;28;20057;-79
2021/01/26 00:46:53;;;;;;;45.33;24.55;;;;;;;0.84;93.70;100534.91;6220922;28;20046;-79
2021/01/26 00:49:54;;;;;;;42.20;21.80;;;;;;;0.90;94.35;100533.06;6220995;28;20561;-79
2021/01/26 00:52:56;;;;;;;45.20;24.33;;;;;;;0.84;94.61;100535.75;6221112;28;20120;-79
2021/01/26 00:55:57;;;;;;;47.78;24.67;;;;;;;0.78;95.64;100530.69;6220897;28;20053;-79
2021/01/26 00:58:58;;;;;;;47.63;26.13;;;;;;;0.83;95.63;100528.88;6242219;23;20528;-74
2021/01/26 01:01:59;;;;;;;43.17;23.65;;;;;;;0.82;95.93;100526.28;6222244;28;20073;-73
2021/01/26 01:04:59;;;;;;;45.13;23.48;;;;;;;1.04;94.48;100529.38;6221208;28;20054;-73
2021/01/26 01:08:02;;;;;;;46.40;24.50;;;;;;;0.88;95.54;100524.47;6220816;28;20050;-73
2021/01/26 01:11:03;;;;;;;42.08;23.33;;;;;;;0.98;95.29;100523.44;6222031;28;20061;-73
2021/01/26 01:14:04;;;;;;;45.63;24.88;;;;;;;1.00;95.20;100518.25;6225125;28;20100;-73
2021/01/26 01:17:04;;;;;;;47.83;24.05;;;;;;;0.91;95.22;100519.25;6225271;28;20054;-73
2021/01/26 01:20:08;;;;;;;51.65;27.70;;;;;;;0.87;95.15;100524.50;6224829;28;20046;-73
2021/01/26 01:23:10;;;;;;;50.67;24.33;;;;;;;0.82;95.55;100516.84;6225190;28;20046;-73
2021/01/26 01:26:10;;;;;;;51.30;26.77;;;;;;;0.94;95.04;100514.00;6224864;28;20940;-73
2021/01/26 01:29:12;;;;;;;49.70;26.20;;;;;;;0.85;95.83;100518.50;6224871;28;20052;-73
2021/01/26 01:32:13;;;;;;;49.80;26.05;;;;;;;0.83;96.36;100512.50;6225995;28;20050;-73
2021/01/26 01:35:15;;;;;;;50.25;26.65;;;;;;;0.84;96.43;100514.22;6225222;28;20077;-73
2021/01/26 01:38:17;;;;;;;53.72;26.65;;;;;;;0.98;96.49;100509.66;6224524;28;20045;-73
2021/01/26 01:41:18;;;;;;;50.40;27.48;;;;;;;0.88;97.54;100508.09;6224673;28;20092;-73
2021/01/26 01:44:19;;;;;;;50.13;26.70;;;;;;;0.90;97.91;100514.09;6224805;28;20513;-73
2021/01/26 01:47:25;;;;;;;56.17;27.45;;;;;;;0.85;98.00;100510.72;6224313;28;20578;-73
2021/01/26 01:50:30;;;;;;;50.83;27.08;;;;;;;0.79;98.61;100511.69;6224450;28;20054;-73
2021/01/26 01:53:35;;;;;;;56.25;29.10;;;;;;;0.74;98.27;100508.34;6224241;28;20057;-73
2021/01/26 01:56:43;;;;;;;58.20;28.98;;;;;;;0.71;98.68;100514.41;6223973;28;20487;-73
2021/01/26 01:59:48;;;;;;;56.42;27.42;;;;;;;0.73;98.75;100510.09;6225005;28;20058;-75
2021/01/26 02:02:54;;;;;;;51.05;26.17;;;;;;;0.79;98.86;100498.78;6224495;28;20053;-75
2021/01/26 02:05:58;;;;;;;52.88;26.88;;;;;;;0.76;99.64;100485.88;6224174;28;20050;-74
2021/01/26 02:09:04;;;;;;;50.75;27.05;;;;;;;0.75;98.75;100497.97;6223902;28;20111;-73
2021/01/26 02:12:08;;;;;;;51.88;27.60;;;;;;;0.83;99.72;100494.41;6224127;28;20418;-73
2021/01/26 02:15:10;;;;;;;48.28;26.40;;;;;;;0.79;98.85;100495.34;6224111;28;20046;-75
2021/01/26 02:18:33;;;;;;;49.30;24.73;;;;;;;0.86;98.82;100495.19;6223556;28;20046;-75
2021/01/26 02:22:11;;;;;;;48.78;25.05;;;;;;;0.86;99.12;100500.34;6222901;28;20053;-73
2021/01/26 02:25:36;;;;;;;51.13;27.23;;;;;;;0.93;98.91;100499.38;6224227;28;20042;-74
2021/01/26 02:28:52;;;;;;;51.28;28.48;;;;;;;0.74;99.02;100496.25;6222835;28;20072;-73
2021/01/26 02:32:04;;;;;;;55.35;27.23;;;;;;;0.80;99.03;100497.88;6247058;28;20124;-73
2021/01/26 02:35:36;;;;;;;47.58;25.58;;;;;;;0.72;99.59;100500.59;6248119;28;20422;-74
2021/01/26 02:39:08;;;;;;;48.33;25.40;;;;;;;0.70;100.00;100498.94;6247318;28;20052;-73
2021/01/26 02:42:24;;;;;;;51.42;25.60;;;;;;;0.69;100.00;100497.22;6237556;28;20053;-73
2021/01/26 02:45:33;;;;;;;52.03;26.55;;;;;;;0.81;100.00;100504.75;6247808;28;20398;-74
2021/01/26 02:48:41;;;;;;;50.67;26.17;;;;;;;0.58;100.00;100506.88;6247650;28;20696;-73
2021/01/26 02:51:52;;;;;;;50.53;26.52;;;;;;;0.53;100.00;100506.94;6234392;28;20048;-73
2021/01/26 02:55:01;;;;;;;57.00;28.52;;;;;;;0.48;100.00;100508.75;6223229;28;20100;-73
2021/01/26 02:58:10;;;;;;;54.90;27.15;;;;;;;0.44;100.00;100507.09;6222723;28;20050;-73
2021/01/26 03:01:13;;;;;;;52.10;27.70;;;;;;;0.36;100.00;100507.22;6223903;28;20058;-73
2021/01/26 03:04:20;;;;;;;51.20;27.17;;;;;;;0.40;100.00;100508.88;6222894;28;20591;-73
2021/01/26 03:07:24;;;;;;;50.90;25.95;;;;;;;0.30;100.00;100506.47;6222552;28;20054;-73
2021/01/26 03:10:32;;;;;;;49.88;26.85;;;;;;;0.34;100.00;100506.41;6222482;28;20050;-72
2021/01/26 03:13:39;;;;;;;56.53;27.02;;;;;;;0.30;100.00;100509.06;6222949;28;20041;-73
2021/01/26 03:16:43;;;;;;;52.85;26.92;;;;;;;0.26;100.00;100513.41;6223186;28;20060;-73
2021/01/26 03:19:49;;;;;;;49.13;25.23;;;;;;;0.24;100.00;100508.28;6222468;28;20058;-73
2021/01/26 03:22:53;;;;;;;44.90;23.60;;;;;;;0.30;100.00;100503.88;6222175;28;20049;-73
2021/01/26 03:25:54;;;;;;;47.72;25.30;;;;;;;0.15;100.00;100504.97;6222521;28;20049;-73
2021/01/26 03:28:59;;;;;;;48.58;24.63;;;;;;;0.19;100.00;100504.91;6222999;28;20742;-73
2021/01/26 03:32:05;;;;;;;51.08;26.55;;;;;;;0.10;100.00;100510.19;6222717;28;20104;-74
2021/01/26 03:35:07;;;;;;;47.58;25.27;;;;;;;0.07;100.00;100509.38;6221755;28;20052;-73
2021/01/26 03:38:12;;;;;;;47.17;23.83;;;;;;;0.01;100.00;100507.75;6222555;28;20092;-73
2021/01/26 03:41:14;;;;;;;49.08;25.48;;;;;;;-0.02;100.00;100500.03;6221795;28;20065;-73
2021/01/26 03:44:15;;;;;;;50.20;26.20;;;;;;;0.01;100.00;100501.72;6222287;28;20050;-73
2021/01/26 03:47:26;;;;;;;49.00;26.20;;;;;;;0.03;100.00;100506.00;6221735;28;20056;-73
2021/01/26 03:50:39;;;;;;;51.80;25.75;;;;;;;0.04;100.00;100507.69;6221751;28;20050;-72
2021/01/26 03:53:59;;;;;;;48.65;24.92;;;;;;;0.12;100.00;100523.09;6222143;28;20046;-74
2021/01/26 03:57:36;;;;;;;49.00;25.23;;;;;;;0.09;100.00;100533.47;6221619;28;20115;-73
2021/01/26 04:00:43;;;;;;;48.90;24.67;;;;;;;0.09;100.00;100539.50;6213487;28;20073;-73
2021/01/26 04:03:52;;;;;;;45.25;23.30;;;;;;;0.11;100.00;100540.31;6221999;28;20050;-73
2021/01/26 04:06:59;;;;;;;46.63;22.90;;;;;;;0.14;100.00;100547.19;6221795;28;20053;-73
2021/01/26 04:10:11;;;;;;;44.22;23.08;;;;;;;0.15;100.00;100539.41;6221647;28;20058;-73
2021/01/26 04:13:15;;;;;;;46.00;24.58;;;;;;;0.17;100.00;100541.97;6231056;28;20045;-73
2021/01/26 04:16:20;;;;;;;44.80;22.63;;;;;;;0.16;100.00;100546.28;6246103;28;20088;-73
2021/01/26 04:19:24;;;;;;;42.65;22.67;;;;;;;0.21;100.00;100559.13;6239290;28;20053;-73
2021/01/26 04:22:26;;;;;;;43.13;23.23;;;;;;;0.36;100.00;100560.63;6221993;28;20061;-74
2021/01/26 04:25:31;;;;;;;41.13;22.00;;;;;;;0.29;100.00;100570.22;6221504;28;20046;-74
2021/01/26 04:28:36;;;;;;;40.20;21.98;;;;;;;0.25;100.00;100566.81;6221283;28;20057;-74
2021/01/26 04:31:38;;;;;;;43.03;22.45;;;;;;;0.24;100.00;100569.44;6221914;28;20053;-74
2021/01/26 04:34:38;;;;;;;42.72;23.55;;;;;;;0.29;100.00;100569.38;6246196;28;20103;-73
2021/01/26 04:37:39;;;;;;;39.25;22.08;;;;;;;0.31;100.00;100573.63;6245517;28;20050;-74
2021/01/26 04:40:41;;;;;;;47.65;23.83;;;;;;;0.30;100.00;100571.06;6245785;28;20103;-74
2021/01/26 04:43:50;;;;;;;42.42;22.65;;;;;;;0.27;100.00;100574.53;6245911;28;20042;-74
2021/01/26 04:47:06;;;;;;;44.95;23.63;;;;;;;0.26;100.00;100583.19;6248519;28;20056;-74
2021/01/26 04:50:17;;;;;;;46.42;23.48;;;;;;;0.28;100.00;100591.78;6228826;28;20092;-74
2021/01/26 04:53:40;;;;;;;43.25;23.27;;;;;;;0.31;100.00;100602.06;6226208;28;20052;-74
2021/01/26 04:56:51;;;;;;;47.75;24.73;;;;;;;0.34;100.00;100608.91;6230486;28;20056;-74
2021/01/26 05:00:17;;;;;;;45.53;23.65;;;;;;;0.32;100.00;100613.25;6250047;28;20049;-74
2021/01/26 05:03:29;;;;;;;44.67;23.80;;;;;;;0.30;100.00;100625.34;6250569;28;20054;-74
2021/01/26 05:06:35;;;;;;;43.00;23.60;;;;;;;0.28;100.00;100624.53;6249973;28;20077;-74
2021/01/26 05:09:42;;;;;;;42.78;23.63;;;;;;;0.27;100.00;100628.81;6249870;28;20103;-74
2021/01/26 05:12:48;;;;;;;48.95;24.48;;;;;;;0.33;100.00;100628.75;6250313;28;20041;-74
2021/01/26 05:15:57;;;;;;;46.40;23.45;;;;;;;0.38;100.00;100626.09;6249992;28;20061;-74
2021/01/26 05:19:05;;;;;;;52.40;26.15;;;;;;;0.48;100.00;100627.69;6228697;28;20053;-75
2021/01/26 05:22:13;;;;;;;51.58;25.33;;;;;;;0.39;100.00;100628.66;6225394;28;20052;-75
2021/01/26 05:25:18;;;;;;;50.28;26.15;;;;;;;0.39;100.00;100636.41;6225471;28;20097;-74
2021/01/26 05:28:19;;;;;;;52.72;26.77;;;;;;;0.40;100.00;100638.13;6246727;28;20045;-74
2021/01/26 05:31:29;;;;;;;44.30;24.20;;;;;;;0.42;100.00;100648.44;6234645;28;20046;-74
2021/01/26 05:34:33;;;;;;;43.08;23.20;;;;;;;0.39;100.00;100662.25;6224709;28;20050;-74
2021/01/26 05:37:34;;;;;;;45.88;23.52;;;;;;;0.39;100.00;100664.84;6224660;28;20050;-74
2021/01/26 05:40:39;;;;;;;45.97;24.60;;;;;;;0.38;100.00;100667.47;6224481;28;20092;-74
2021/01/26 05:43:40;;;;;;;47.72;24.55;;;;;;;0.42;100.00;100669.13;6224995;28;20045;-74
2021/01/26 05:46:43;;;;;;;48.25;25.83;;;;;;;0.41;100.00;100680.31;6224164;28;20046;-74
2021/01/26 05:49:45;;;;;;;48.00;25.00;;;;;;;0.39;100.00;100682.09;6224289;28;20057;-74
2021/01/26 05:52:46;;;;;;;53.80;27.05;;;;;;;0.42;100.00;100689.81;6224714;28;20056;-74
2021/01/26 05:55:58;;;;;;;56.45;27.48;;;;;;;0.42;100.00;100703.59;6224404;28;20046;-74
2021/01/26 05:59:19;;;;;;;53.35;28.63;;;;;;;0.40;100.00;100704.47;6220157;28;20131;-74
2021/01/26 06:02:22;;;;;;;51.90;26.70;;;;;;;0.43;100.00;100705.28;6224041;28;20104;-74
2021/01/26 06:05:24;;;;;;;57.70;28.38;;;;;;;0.43;100.00;100709.59;6224303;28;20096;-74
2021/01/26 06:08:25;;;;;;;54.50;27.58;;;;;;;0.47;100.00;100719.03;6224026;28;20054;-74
2021/01/26 06:11:29;;;;;;;62.60;31.20;;;;;;;0.52;100.00;100730.19;6223758;28;20049;-74
2021/01/26 06:14:30;;;;;;;58.25;29.33;;;;;;;0.53;100.00;100733.63;6223913;28;20053;-74
2021/01/26 06:17:33;;;;;;;53.40;27.80;;;;;;;0.47;100.00;100735.41;6223937;28;20506;-74
2021/01/26 06:20:36;;;;;;;55.17;28.58;;;;;;;0.55;100.00;100744.81;6223442;28;20050;-75
2021/01/26 06:23:38;;;;;;;51.05;26.50;;;;;;;0.72;100.00;100758.34;6224022;28;20085;-74
2021/01/26 06:26:44;;;;;;;51.92;27.55;;;;;;;0.70;100.00;100762.72;6224307;28;20046;-74
2021/01/26 06:29:53;;;;;;;55.03;28.83;;;;;;;0.59;100.00;100773.19;6223615;28;20053;-73
2021/01/26 06:33:24;;;;;;;54.50;29.00;;;;;;;0.52;100.00;100781.03;6223579;28;20049;-74
2021/01/26 06:37:02;;;;;;;57.33;27.60;;;;;;;0.66;100.00;100792.91;6223232;28;20050;-77
2021/01/26 06:40:18;;;;;;;58.45;28.42;;;;;;;0.68;100.00;100792.88;6223401;28;20053;-77
2021/01/26 06:43:39;;;;;;;56.85;29.42;;;;;;;0.65;100.00;100801.56;6223421;28;20557;-77
2021/01/26 06:46:59;;;;;;;58.53;30.17;;;;;;;0.61;100.00;100810.22;6223265;28;20045;-77
2021/01/26 06:50:04;;;;;;;64.35;31.48;;;;;;;0.40;100.00;100813.88;6223294;28;20045;-76
2021/01/26 06:53:20;;;;;;;72.30;33.97;;;;;;;0.46;100.00;100813.00;6223745;28;20076;-78
2021/01/26 06:56:51;;;;;;;68.40;33.97;;;;;;;0.41;100.00;100815.63;6223517;28;20073;-77
2021/01/26 07:00:26;;;;;;;71.32;34.33;;;;;;;0.61;100.00;100828.31;6198886;28;20054;-77
2021/01/26 07:03:50;;;;;;;68.90;34.15;;;;;;;0.61;100.00;100836.06;6191375;28;20061;-77
2021/01/26 07:07:34;;;;;;;72.65;34.10;;;;;;;0.62;100.00;100855.88;6198460;28;20423;-77
2021/01/26 07:10:51;;;;;;;82.65;36.60;;;;;;;0.53;100.00;100865.47;6197678;28;20112;-77
2021/01/26 07:13:58;;;;;;;83.90;37.13;;;;;;;0.46;100.00;100878.47;6212817;28;20105;-77
2021/01/26 07:17:01;;;;;;;84.22;37.83;;;;;;;0.57;100.00;100891.28;6222673;28;20061;-76
2021/01/26 07:20:12;;;;;;;86.07;37.97;;;;;;;0.56;100.00;100897.34;6222263;28;20462;-78
2021/01/26 07:23:34;;;;;;;82.18;37.95;;;;;;;0.41;100.00;100908.69;6222618;28;20046;-77
2021/01/26 07:26:53;;;;;;;92.32;40.45;;;;;;;0.38;100.00;100913.88;6222113;28;20058;-76
2021/01/26 07:30:00;;;;;;;87.10;39.40;;;;;;;0.69;100.00;100916.19;6223524;28;20057;-76
2021/01/26 07:33:05;;;;;;;80.50;36.25;;;;;;;0.58;100.00;100924.00;6222487;28;20057;-76
2021/01/26 07:36:13;;;;;;;88.10;38.83;;;;;;;0.58;100.00;100928.34;6222046;28;20403;-76
2021/01/26 07:39:23;;;;;;;89.45;39.90;;;;;;;0.40;100.00;100930.22;6221944;28;20100;-76
2021/01/26 07:42:29;;;;;;;96.60;42.15;;;;;;;0.39;100.00;100933.66;6222351;28;20089;-76
2021/01/26 07:45:35;;;;;;;99.80;44.92;;;;;;;0.39;100.00;100936.25;6222303;28;20067;-76
2021/01/26 07:48:43;;;;;;;102.30;42.38;;;;;;;0.55;100.00;100938.72;6221800;28;20049;-75
2021/01/26 07:51:48;;;;;;;107.22;43.13;;;;;;;0.41;100.00;100947.47;6222297;28;20054;-76
2021/01/26 07:55:00;;;;;;;101.10;45.60;;;;;;;0.63;100.00;100957.59;6222287;28;20096;-76
2021/01/26 07:58:05;;;;;;;101.03;43.20;;;;;;;0.54;100.00;100960.25;6236001;28;20049;-77
2021/01/26 08:01:07;;;;;;;88.82;41.75;;;;;;;0.55;100.00;100973.19;6246071;28;20464;-78
2021/01/26 08:04:08;;;;;;;88.32;41.25;;;;;;;0.72;100.00;100973.03;6246569;28;20521;-77
2021/01/26 08:07:20;;;;;;;85.03;40.25;;;;;;;0.72;100.00;100981.63;6237391;28;20132;-77
2021/01/26 08:10:24;;;;;;;84.20;39.40;;;;;;;0.65;100.00;100981.72;6220618;28;20046;-75
2021/01/26 08:13:27;;;;;;;95.75;43.50;;;;;;;0.58;100.00;100978.31;6221701;28;20053;-78
2021/01/26 08:16:32;;;;;;;101.78;43.00;;;;;;;0.68;100.00;100986.84;6221239;28;20045;-78
2021/01/26 08:19:36;;;;;;;94.57;43.92;;;;;;;0.57;100.00;100988.69;6222022;28;20046;-75
2021/01/26 08:22:40;;;;;;;90.53;42.17;;;;;;;0.53;100.00;101000.78;6226694;28;20046;-78
2021/01/26 08:25:43;;;;;;;101.47;43.45;;;;;;;0.63;100.00;101014.47;6215916;28;20050;-77
2021/01/26 08:28:46;;;;;;;101.82;42.55;;;;;;;0.69;100.00;101017.03;6231653;28;20042;-74
2021/01/26 08:31:48;;;;;;;100.75;43.47;;;;;;;0.61;100.00;101021.41;6221633;28;20510;-74
2021/01/26 08:34:58;;;;;;;105.15;46.17;;;;;;;0.58;100.00;101032.63;6211647;28;20050;-74
2021/01/26 08:37:58;;;;;;;100.30;45.25;;;;;;;0.57;100.00;101030.06;6224590;28;20046;-76
2021/01/26 08:41:06;;;;;;;98.70;44.08;;;;;;;0.60;100.00;101036.06;6225435;28;20064;-74
2021/01/26 08:44:11;;;;;;;99.65;43.83;;;;;;;0.61;100.00;101042.94;6238107;28;20049;-74
2021/01/26 08:47:43;;;;;;;102.60;43.60;;;;;;;0.61;100.00;101045.53;6240531;28;20482;-75
2021/01/26 08:51:06;;;;;;;104.45;43.03;;;;;;;0.71;100.00;101051.50;6225532;28;20049;-74
2021/01/26 08:54:07;;;;;;;105.57;44.63;;;;;;;0.70;100.00;101053.22;6225705;28;20556;-74
2021/01/26 08:57:36;;;;;;;105.65;43.55;;;;;;;0.81;100.00;101060.88;6225247;28;20046;-74
2021/01/26 09:00:47;;;;;;;101.75;43.83;;;;;;;0.95;100.00;101063.34;6207415;28;20050;-73
2021/01/26 09:03:49;;;;;;;96.00;44.47;;;;;;;1.00;100.00;101075.41;6206298;28;20041;-76
2021/01/26 09:06:50;;;;;;;99.07;43.53;;;;;;;0.89;100.00;101092.72;6221212;28;20046;-76
2021/01/26 09:09:54;;;;;;;104.22;45.13;;;;;;;0.80;100.00;101097.97;6222582;28;20602;-78
2021/01/26 09:13:12;;;;;;;112.32;47.88;;;;;;;0.71;100.00;101096.31;6225684;28;20103;-76
2021/01/26 09:16:18;;;;;;;111.25;46.95;;;;;;;0.89;100.00;101107.41;6225353;28;20059;-76
2021/01/26 09:19:24;;;;;;;104.05;44.72;;;;;;;0.86;100.00;101108.25;6224476;28;20046;-78
2021/01/26 09:22:29;;;;;;;114.78;46.80;;;;;;;0.76;100.00;101111.81;6224046;28;20072;-78
2021/01/26 09:25:35;;;;;;;106.38;45.15;;;;;;;0.78;100.00;101112.66;6224773;28;20054;-77
2021/01/26 09:28:40;;;;;;;115.93;45.95;;;;;;;0.76;100.00;101117.81;6225534;28;20058;-78
2021/01/26 09:31:40;;;;;;;107.13;46.38;;;;;;;0.92;100.00;101128.94;6223985;28;20392;-78
2021/01/26 09:34:42;;;;;;;116.50;46.42;;;;;;;0.82;100.00;101139.34;6225135;28;20045;-76
2021/01/26 09:37:43;;;;;;;109.60;44.85;;;;;;;0.83;100.00;101134.19;6223878;28;20104;-79
2021/01/26 09:40:47;;;;;;;109.85;44.83;;;;;;;1.04;100.00;101142.63;6223667;28;20046;-78
2021/01/26 09:43:49;;;;;;;110.65;44.15;;;;;;;0.99;100.00;101145.25;6223724;28;20049;-78
2021/01/26 09:46:59;;;;;;;105.85;42.53;;;;;;;0.90;100.00;101151.34;6223319;28;20041;-79
2021/01/26 09:50:04;;;;;;;105.00;43.30;;;;;;;1.03;100.00;101149.53;6222920;28;20046;-78
2021/01/26 09:53:06;;;;;;;101.82;42.40;;;;;;;1.12;100.00;101154.66;6221103;28;20422;-79
2021/01/26 09:56:09;;;;;;;111.65;46.50;;;;;;;1.00;100.00;101160.78;6223011;28;20050;-77
2021/01/26 09:59:12;;;;;;;108.10;45.38;;;;;;;1.04;100.00;101163.34;6224822;28;20086;-79
2021/01/26 10:02:16;;;;;;;108.22;44.58;;;;;;;1.16;100.00;101173.59;6235869;28;20053;-79
2021/01/26 10:05:18;;;;;;;104.55;42.35;;;;;;;1.10;100.00;101173.66;6249268;28;20111;-79
2021/01/26 10:08:25;;;;;;;101.88;43.92;;;;;;;1.13;100.00;101183.97;6226137;28;20050;-78
2021/01/26 10:11:28;;;;;;;116.55;46.17;;;;;;;1.08;100.00;101181.41;6223712;28;20057;-78
2021/01/26 10:14:29;;;;;;;102.32;42.80;;;;;;;1.29;100.00;101190.75;6224011;28;20522;-78
2021/01/26 10:17:30;;;;;;;104.75;42.45;;;;;;;1.29;100.00;101184.72;6223258;28;20176;-77
2021/01/26 10:20:35;;;;;;;106.13;43.80;;;;;;;1.41;100.00;101188.09;6223684;28;20057;-76
2021/01/26 10:23:39;;;;;;;110.43;44.75;;;;;;;1.20;100.00;101189.09;6223796;28;20104;-76
2021/01/26 10:26:42;;;;;;;112.47;44.72;;;;;;;1.26;100.00;101195.94;6223737;28;20060;-77
2021/01/26 10:29:45;;;;;;;98.78;42.55;;;;;;;1.61;99.75;101199.97;6237263;28;20465;-77
2021/01/26 10:32:51;;;;;;;101.97;44.70;;;;;;;1.47;100.00;101198.38;6231929;28;20068;-78
2021/01/26 10:35:53;;;;;;;103.15;43.50;;;;;;;1.42;100.00;101213.09;6223275;28;20077;-76
2021/01/26 10:38:55;;;;;;;105.78;44.20;;;;;;;1.40;99.95;101214.81;6223103;28;20046;-79
2021/01/26 10:42:03;;;;;;;117.88;46.75;;;;;;;1.37;100.00;101214.00;6223838;28;20057;-77
2021/01/26 10:45:05;;;;;;;104.45;43.50;;;;;;;1.57;99.80;101217.28;6220907;28;20057;-76
2021/01/26 10:48:10;;;;;;;95.60;43.38;;;;;;;1.84;99.12;101228.25;6222949;28;20396;-77
2021/01/26 10:51:15;;;;;;;97.47;43.65;;;;;;;1.57;98.83;101231.97;6223167;28;20552;-75
2021/01/26 10:54:16;;;;;;;103.20;42.05;;;;;;;1.55;99.39;101229.41;6223177;28;20132;-77
2021/01/26 10:57:17;;;;;;;92.40;41.42;;;;;;;1.75;98.58;101230.06;6221968;28;20509;-76
2021/01/26 11:00:22;;;;;;;89.20;39.20;;;;;;;1.72;98.55;101245.63;6223179;28;20049;-75
2021/01/26 11:03:23;;;;;;;73.63;36.03;;;;;;;1.89;96.84;101249.81;6222965;28;20128;-76
2021/01/26 11:06:25;;;;;;;74.80;35.03;;;;;;;1.83;95.97;101249.88;6222478;28;20527;-77
2021/01/26 11:09:26;;;;;;;72.40;35.15;;;;;;;1.83;96.85;101247.28;6222491;28;20045;-78
2021/01/26 11:12:27;;;;;;;72.10;35.10;;;;;;;1.87;97.62;101251.56;6222791;28;20116;-77
2021/01/26 11:15:29;;;;;;;67.75;33.78;;;;;;;1.87;96.93;101252.41;6222356;28;20595;-78
2021/01/26 11:18:30;;;;;;;67.50;31.15;;;;;;;2.05;94.68;101246.19;6222256;28;20058;-76
2021/01/26 11:21:32;;;;;;;58.25;29.88;;;;;;;1.98;93.45;101253.16;6222289;28;20108;-78
2021/01/26 11:24:34;;;;;;;60.17;30.20;;;;;;;2.02;94.12;101249.66;6222400;28;20069;-78
2021/01/26 11:27:35;;;;;;;58.03;29.50;;;;;;;2.33;93.59;101254.53;6222106;28;20254;-76
2021/01/26 11:30:36;;;;;;;57.65;29.13;;;;;;;2.31;92.24;101250.22;6220713;28;20443;-75
2021/01/26 11:33:37;;;;;;;53.97;27.17;;;;;;;2.10;92.39;101256.53;6222078;28;20128;-78
2021/01/26 11:36:39;;;;;;;48.05;26.65;;;;;;;2.09;92.45;101257.38;6221637;28;20046;-77
2021/01/26 11:39:40;;;;;;;51.63;26.27;;;;;;;2.05;93.49;101255.72;6222377;28;20054;-77
2021/01/26 11:42:41;;;;;;;43.40;23.65;;;;;;;2.33;91.60;101253.69;6222422;28;20061;-77
2021/01/26 11:45:42;;;;;;;47.83;25.90;;;;;;;2.20;91.73;101259.00;6222211;28;20050;-78
2021/01/26 11:48:44;;;;;;;51.85;26.85;;;;;;;2.25;91.10;101259.78;6221628;28;20137;-76
2021/01/26 11:51:46;;;;;;;49.30;25.40;;;;;;;2.51;90.95;101259.50;6221842;28;20061;-75
2021/01/26 11:54:47;;;;;;;45.47;24.10;;;;;;;2.39;90.17;101251.88;6221757;28;20049;-75
2021/01/26 11:57:48;;;;;;;47.83;24.40;;;;;;;2.29;90.83;101265.81;6221479;28;20498;-77
2021/01/26 12:00:49;;;;;;;50.65;27.42;;;;;;;2.45;91.01;101269.09;6231955;28;20064;-76
2021/01/26 12:03:50;;;;;;;49.65;26.70;;;;;;;2.46;90.10;101261.31;6224703;28;20054;-77
2021/01/26 12:06:53;;;;;;;47.50;26.17;;;;;;;2.54;88.67;101262.06;6221420;28;20061;-76
2021/01/26 12:09:54;;;;;;;52.78;27.67;;;;;;;2.51;89.22;101259.50;6221459;28;20422;-76
2021/01/26 12:12:55;;;;;;;51.08;26.15;;;;;;;2.59;89.43;101258.53;6221908;28;20057;-76
2021/01/26 12:15:56;;;;;;;51.67;27.38;;;;;;;2.44;89.85;101265.63;6208452;28;20241;-76
2021/01/26 12:18:56;;;;;;;58.28;28.80;;;;;;;2.53;89.27;101265.53;6196881;28;20650;-76
2021/01/26 12:22:00;;;;;;;52.55;26.90;;;;;;;2.64;90.75;101254.19;6197619;28;20055;-77
2021/01/26 12:25:01;;;;;;;50.85;26.85;;;;;;;2.38;89.94;101267.44;6197341;28;20109;-78
2021/01/26 12:28:02;;;;;;;48.28;25.42;;;;;;;2.50;89.77;101260.41;6197112;28;20062;-76
2021/01/26 12:31:03;;;;;;;47.67;25.25;;;;;;;2.78;88.90;101268.69;6206811;28;20042;-76
2021/01/26 12:34:04;;;;;;;49.58;25.42;;;;;;;2.77;89.66;101261.78;6221327;28;20050;-77
2021/01/26 12:37:07;;;;;;;48.35;25.98;;;;;;;2.50;89.77;101272.50;6220905;28;20086;-76
2021/01/26 12:40:09;;;;;;;47.63;24.50;;;;;;;2.67;90.35;101270.53;6221318;28;20058;-75
2021/01/26 12:43:10;;;;;;;50.58;25.77;;;;;;;2.47;90.99;101275.13;6221436;28;20053;-75
2021/01/26 12:46:11;;;;;;;44.47;25.40;;;;;;;2.75;88.73;101288.63;6221144;28;20050;-76
2021/01/26 12:49:12;;;;;;;47.50;24.42;;;;;;;2.43;89.96;101278.63;6220942;28;20514;-79
2021/01/26 12:52:14;;;;;;;47.35;25.08;;;;;;;2.55;89.39;101270.72;6221515;28;20050;-77
2021/01/26 12:55:15;;;;;;;46.40;24.60;;;;;;;2.70;89.23;101274.84;6221295;28;20050;-77
2021/01/26 12:58:16;;;;;;;38.97;23.05;;;;;;;2.73;88.51;101272.22;6220319;28;20178;-75
2021/01/26 13:01:17;;;;;;;43.58;22.77;;;;;;;2.78;88.75;101276.47;6221532;28;20107;-75
2021/01/26 13:04:18;;;;;;;39.72;23.05;;;;;;;2.61;87.78;101278.41;6263874;23;20069;-79
2021/01/26 13:07:20;;;;;;;43.75;22.77;;;;;;;2.68;89.12;101282.66;6246769;28;20056;-80
2021/01/26 13:10:22;;;;;;;40.65;22.58;;;;;;;2.60;89.78;101278.44;6249255;28;20140;-78
2021/01/26 13:13:23;;;;;;;39.08;20.25;;;;;;;2.86;87.00;101272.91;6249337;28;20084;-79
2021/01/26 13:16:23;;;;;;;38.45;21.35;;;;;;;2.72;88.15;101279.13;6249471;28;20053;-78
2021/01/26 13:19:24;;;;;;;35.28;21.33;;;;;;;2.79;88.38;101266.94;6248603;28;20469;-79
2021/01/26 13:22:26;;;;;;;41.50;20.85;;;;;;;2.82;89.06;101272.13;6249182;28;20107;-79
2021/01/26 13:25:27;;;;;;;35.42;20.05;;;;;;;2.67;90.19;101274.88;6249973;28;20056;-79
2021/01/26 13:28:28;;;;;;;36.25;19.77;;;;;;;2.75;89.93;101270.47;6249133;28;20049;-79
2021/01/26 13:31:29;;;;;;;33.05;18.40;;;;;;;2.96;88.92;101262.41;6263308;28;20052;-79
2021/01/26 13:34:30;;;;;;;32.05;19.38;;;;;;;2.72;89.60;101263.56;6274490;28;20444;-80
2021/01/26 13:37:31;;;;;;;36.08;18.33;;;;;;;2.83;90.29;101260.84;6272994;28;20045;-79
2021/01/26 13:40:32;;;;;;;32.85;18.75;;;;;;;2.97;88.27;101264.09;6248418;28;20045;-79
2021/01/26 13:43:34;;;;;;;33.47;18.25;;;;;;;2.96;87.55;101259.81;6248701;28;20525;-78
2021/01/26 13:46:34;;;;;;;32.33;16.80;;;;;;;3.01;87.13;101263.19;6246227;28;20057;-79
2021/01/26 13:49:35;;;;;;;32.78;17.45;;;;;;;2.99;88.43;101269.25;6248764;28;20054;-79
2021/01/26 13:52:37;;;;;;;27.25;16.05;;;;;;;2.92;87.36;101275.44;6249393;28;20051;-80
2021/01/26 13:55:38;;;;;;;36.80;16.52;;;;;;;2.94;87.52;101281.44;6248731;28;20757;-79
2021/01/26 13:58:39;;;;;;;27.33;15.02;;;;;;;2.94;88.25;101284.91;6247996;28;20136;-80
2021/01/26 14:01:40;;;;;;;28.85;15.23;;;;;;;2.75;88.88;101297.25;6249777;28;20049;-75
2021/01/26 14:04:40;;;;;;;29.75;15.65;;;;;;;3.04;87.88;101296.91;6248608;28;20050;-74
2021/01/26 14:07:42;;;;;;;29.90;15.48;;;;;;;2.92;88.22;101298.81;6248587;28;20045;-75